Las Compuertas, Argentina
Current Conditions -  °F | °C
As of 12:00 PM on Friday 31 Oct 2014 (Local Time) from SAME Reporting Station
Clear Clear  
Wind Chill: 63°   Ceiling: Unl
Heat Index: 63°   Visibility: 6mi
Dew Point: 21°   Wind: 9mph
Humidity: 20%   Direction: 140°SE
Pressure: 30.06"   Gusts: NA
Location:  33.03°S, 68.98°W
Report Text: SAME 311500Z 14008KT CAVOK 17/M06 Q1018
Loading
Personal Weather Stations






























Interactive Weather Map
Tropical Storm Tracking
New forecast layout! Learn more

10-Day Weather Forecast

Advertisements
Track Severe Weather on mobile